createdAt,value
2022-10-21T00:09:54.978Z,100118.31
2022-10-21T00:24:46.843Z,100146.34
2022-10-21T00:39:39.712Z,100136.13
2022-10-21T00:54:31.541Z,100077.15
2022-10-21T01:09:23.672Z,100066.27
2022-10-21T01:54:40.336Z,99970.44
2022-10-21T02:09:37.091Z,99968.61
2022-10-21T02:24:38.707Z,99924.03
2022-10-21T02:39:35.391Z,99901.51
2022-10-21T02:54:27.969Z,99892.27
2022-10-21T03:09:21.208Z,99874.11
2022-10-21T03:24:15.507Z,99877.88
2022-10-21T03:39:05.539Z,99867.91
2022-10-21T03:53:58.105Z,99869.94
2022-10-21T04:08:50.647Z,99872.00
2022-10-21T04:23:42.517Z,99868.97
2022-10-21T04:38:34.693Z,99859.30
2022-10-21T04:53:27.072Z,99879.00
2022-10-21T05:08:19.252Z,99866.02
2022-10-21T05:23:11.168Z,99847.64
2022-10-21T05:38:03.943Z,99839.53
2022-10-21T05:52:58.468Z,99828.70
2022-10-21T06:07:47.657Z,99820.16
2022-10-21T06:22:39.866Z,99819.75
2022-10-21T06:37:32.382Z,99868.11
2022-10-21T07:07:17.093Z,99857.12
2022-10-21T07:22:09.057Z,99858.52
2022-10-21T07:37:01.865Z,99877.83
2022-10-21T07:51:55.088Z,99905.95
2022-10-21T08:06:48.420Z,99910.86
2022-10-21T08:21:40.489Z,99932.92
2022-10-21T08:36:33.214Z,99936.50
2022-10-21T08:51:27.517Z,99960.08
2022-10-21T09:06:30.814Z,99977.33
2022-10-21T09:21:40.860Z,99973.22
2022-10-21T09:36:38.018Z,99989.59
2022-10-21T10:06:42.310Z,100002.42
2022-10-21T10:21:37.912Z,100018.12
2022-10-21T10:36:31.289Z,100033.95
2022-10-21T10:51:29.919Z,100018.59
2022-10-21T11:06:44.159Z,100007.78
2022-10-21T11:21:48.976Z,100019.06
2022-10-21T11:36:51.222Z,100009.05
2022-10-21T11:52:02.463Z,100001.78
2022-10-21T12:07:11.750Z,100005.44
2022-10-21T12:22:08.912Z,100005.22
2022-10-21T12:37:02.184Z,99991.47
2022-10-21T12:52:15.588Z,99986.47
2022-10-21T13:07:15.436Z,99966.88
2022-10-21T13:22:10.786Z,99986.34
2022-10-21T13:37:02.749Z,99986.97
2022-10-21T13:51:55.686Z,99976.58
2022-10-21T14:06:46.973Z,99967.52
2022-10-21T14:21:38.350Z,99956.34
2022-10-21T14:36:30.003Z,99960.72
2022-10-21T14:51:22.209Z,99967.42
2022-10-21T15:06:16.615Z,99954.84
2022-10-21T15:21:10.095Z,99967.09
2022-10-21T15:36:04.160Z,99970.89
2022-10-21T15:50:58.233Z,99959.73
2022-10-21T16:05:50.543Z,99957.98
2022-10-21T16:35:57.839Z,99952.64
2022-10-21T16:50:54.051Z,99954.81
2022-10-21T17:05:48.325Z,99952.73
2022-10-21T17:20:40.773Z,99959.02
2022-10-21T17:35:33.326Z,99958.61
2022-10-21T17:50:24.155Z,99964.46
2022-10-21T18:05:15.646Z,99958.95
2022-10-21T18:20:07.150Z,99962.59
2022-10-21T18:49:56.560Z,99960.70
2022-10-21T19:04:48.365Z,99975.07
2022-10-21T19:19:39.834Z,99971.73
2022-10-21T19:34:32.534Z,99943.27
2022-10-21T19:49:23.918Z,99963.14
2022-10-21T20:04:16.134Z,99989.48
2022-10-21T20:19:08.571Z,100002.73
2022-10-21T20:34:00.465Z,100021.58
2022-10-21T20:48:52.248Z,100008.47
2022-10-21T21:03:43.499Z,99975.75
2022-10-21T21:18:36.220Z,99935.80
2022-10-21T21:33:29.259Z,99961.03
2022-10-21T21:48:21.738Z,99927.81
2022-10-21T22:03:13.009Z,99935.36
2022-10-21T22:18:04.728Z,99965.91
2022-10-21T22:32:55.927Z,99996.47
2022-10-21T22:47:47.614Z,100007.42
2022-10-21T23:02:39.043Z,100044.50
2022-10-21T23:17:30.711Z,100092.29
2022-10-21T23:32:21.718Z,100105.13
2022-10-21T23:47:12.635Z,100063.74
